createdAt,value
2022-11-24T00:01:06.303Z,99908.16
2022-11-24T00:03:34.613Z,99903.03
2022-11-24T00:06:07.506Z,99899.56
2022-11-24T00:08:36.199Z,99860.13
2022-11-24T00:11:06.045Z,99902.94
2022-11-24T00:13:34.714Z,99891.72
2022-11-24T00:16:09.221Z,99892.75
2022-11-24T00:18:37.294Z,99896.94
2022-11-24T00:21:05.544Z,99901.25
2022-11-24T00:23:33.798Z,99912.53
2022-11-24T00:26:07.044Z,99908.25
2022-11-24T00:28:36.520Z,99914.38
2022-11-24T00:31:06.143Z,99907.41
2022-11-24T00:33:35.580Z,99917.69
2022-11-24T00:36:03.550Z,99908.22
2022-11-24T00:38:31.570Z,99903.03
2022-11-24T00:40:59.679Z,99914.16
2022-11-24T00:43:27.641Z,99911.59
2022-11-24T00:45:55.794Z,99911.41
2022-11-24T00:48:24.225Z,99896.16
2022-11-24T00:51:02.039Z,99885.06
2022-11-24T00:53:30.955Z,99914.84
2022-11-24T00:55:58.958Z,99914.88
2022-11-24T00:58:26.969Z,99886.00
2022-11-24T01:00:55.028Z,99927.97
2022-11-24T01:03:23.178Z,99939.00
2022-11-24T01:05:51.127Z,99929.44
2022-11-24T01:08:20.566Z,99933.84
2022-11-24T01:10:48.562Z,99936.34
2022-11-24T01:13:16.701Z,99931.97
2022-11-24T01:15:44.705Z,99935.53
2022-11-24T01:18:13.253Z,99944.03
2022-11-24T01:20:41.232Z,99948.28
2022-11-24T01:23:09.174Z,99946.50
2022-11-24T01:25:40.708Z,99943.91
2022-11-24T01:28:09.072Z,99945.75
2022-11-24T01:30:37.168Z,99943.88
2022-11-24T01:33:05.294Z,99941.38
2022-11-24T01:35:33.280Z,99944.91
2022-11-24T01:38:01.245Z,99948.22
2022-11-24T01:40:29.215Z,99952.59
2022-11-24T01:42:58.591Z,99942.25
2022-11-24T01:45:34.668Z,99921.00
2022-11-24T01:48:06.900Z,99934.56
2022-11-24T01:50:36.294Z,99937.00
2022-11-24T01:53:05.838Z,99947.28
2022-11-24T01:55:37.765Z,99956.78
2022-11-24T01:58:11.986Z,99963.69
2022-11-24T02:00:42.561Z,99967.16
2022-11-24T02:03:13.499Z,99972.22
2022-11-24T02:05:46.675Z,99973.94
2022-11-24T02:08:22.356Z,99976.44
2022-11-24T02:10:50.403Z,99969.72
2022-11-24T02:13:20.574Z,99976.63
2022-11-24T02:15:48.914Z,99981.72
2022-11-24T02:18:16.898Z,99978.31
2022-11-24T02:20:44.918Z,99982.59
2022-11-24T02:23:24.110Z,99995.38
2022-11-24T02:26:00.827Z,99989.38
2022-11-24T02:28:31.599Z,99996.09
2022-11-24T02:31:01.233Z,99999.69
2022-11-24T02:33:30.172Z,100001.31
2022-11-24T02:35:58.164Z,100003.84
2022-11-24T02:38:34.624Z,99945.81
2022-11-24T02:41:06.917Z,100008.97
2022-11-24T02:43:40.701Z,100002.84
2022-11-24T02:46:09.601Z,99966.16
2022-11-24T02:48:37.660Z,99996.13
2022-11-24T02:51:06.124Z,100014.16
2022-11-24T02:53:35.485Z,100017.66
2022-11-24T02:56:03.494Z,100016.88
2022-11-24T02:58:31.510Z,100008.97
2022-11-24T03:01:00.867Z,100011.88
2022-11-24T03:03:29.081Z,100017.53
2022-11-24T03:05:57.073Z,100017.69
2022-11-24T03:08:25.060Z,100016.63
2022-11-24T03:10:53.040Z,100017.44
2022-11-24T03:13:21.094Z,100021.78
2022-11-24T03:15:49.220Z,100019.38
2022-11-24T03:18:18.636Z,100031.28
2022-11-24T03:20:46.717Z,100024.34
2022-11-24T03:23:14.688Z,100022.78
2022-11-24T03:25:42.646Z,100025.22
2022-11-24T03:28:10.695Z,100024.28
2022-11-24T03:30:39.097Z,100013.94
2022-11-24T03:33:07.346Z,100028.69
2022-11-24T03:35:36.768Z,100026.84
2022-11-24T03:38:04.707Z,100030.94
2022-11-24T03:40:32.699Z,100027.72
2022-11-24T03:43:00.649Z,100032.75
2022-11-24T03:48:17.391Z,100050.69
2022-11-24T03:50:54.770Z,100001.06
2022-11-24T03:53:23.148Z,100045.56
2022-11-24T03:55:51.086Z,100052.47
2022-11-24T03:58:19.481Z,100050.84
2022-11-24T04:00:49.719Z,100049.88
2022-11-24T04:03:18.044Z,100052.41
2022-11-24T04:05:47.441Z,100052.47
2022-11-24T04:08:16.256Z,100055.06
2022-11-24T04:10:44.474Z,100057.50
2022-11-24T04:13:13.781Z,100049.75
2022-11-24T04:15:43.053Z,100060.91
2022-11-24T04:18:12.172Z,100063.56
2022-11-24T04:20:40.568Z,100064.34
2022-11-24T04:23:10.795Z,100070.41
2022-11-24T04:25:38.924Z,100066.91
2022-11-24T04:28:06.809Z,100067.97
2022-11-24T04:30:35.127Z,100079.06
2022-11-24T04:33:03.128Z,100091.03
2022-11-24T04:35:31.046Z,100087.72
2022-11-24T04:37:58.825Z,100089.28
2022-11-24T04:40:28.196Z,100097.00
2022-11-24T04:42:56.823Z,100096.16
2022-11-24T04:45:25.199Z,100089.44
2022-11-24T04:47:53.166Z,100099.69
2022-11-24T04:50:21.040Z,100096.31
2022-11-24T04:52:49.003Z,100085.22
2022-11-24T04:55:16.874Z,100104.78
2022-11-24T04:57:46.065Z,100107.56
2022-11-24T05:00:15.572Z,100111.78
2022-11-24T05:02:43.462Z,100120.38
2022-11-24T05:05:11.436Z,100115.25
2022-11-24T05:07:39.369Z,100115.16
2022-11-24T05:10:25.769Z,100121.22
2022-11-24T05:12:59.529Z,100128.81
2022-11-24T05:15:28.066Z,100126.47
2022-11-24T05:17:56.232Z,100123.91
2022-11-24T05:20:24.682Z,100129.06
2022-11-24T05:22:52.559Z,100136.69
2022-11-24T05:25:20.441Z,100137.69
2022-11-24T05:27:48.262Z,100139.22
2022-11-24T05:30:17.744Z,100137.69
2022-11-24T05:32:45.547Z,100147.91
2022-11-24T05:35:14.342Z,100129.09
2022-11-24T05:37:42.118Z,100156.44
2022-11-24T05:40:10.532Z,100158.34
2022-11-24T05:42:46.666Z,100161.00
2022-11-24T05:45:19.342Z,100163.28
2022-11-24T05:47:47.852Z,100137.69
2022-11-24T05:50:17.850Z,100164.91
2022-11-24T05:52:45.778Z,100169.38
2022-11-24T05:55:15.722Z,100172.75
2022-11-24T05:57:43.952Z,100163.66
2022-11-24T06:00:12.787Z,100168.59
2022-11-24T06:02:42.420Z,100171.81
2022-11-24T06:05:10.557Z,100176.09
2022-11-24T06:07:38.553Z,100187.38
2022-11-24T06:10:06.820Z,100166.63
2022-11-24T06:12:34.621Z,100189.94
2022-11-24T06:15:02.425Z,100191.66
2022-11-24T06:17:30.298Z,100195.00
2022-11-24T06:19:59.536Z,100199.59
2022-11-24T06:22:27.517Z,100189.94
2022-11-24T06:24:55.325Z,100190.78
2022-11-24T06:27:23.264Z,100186.34
2022-11-24T06:29:51.107Z,100199.44
2022-11-24T06:32:19.128Z,100187.34
2022-11-24T06:34:46.938Z,100204.47
2022-11-24T06:37:16.131Z,100135.19
2022-11-24T06:39:43.967Z,100206.28
2022-11-24T06:42:11.765Z,100213.28
2022-11-24T06:44:39.623Z,100215.78
2022-11-24T06:47:07.490Z,100213.00
2022-11-24T06:49:35.306Z,100207.84
2022-11-24T06:52:03.123Z,100205.41
2022-11-24T06:54:32.672Z,100222.53
2022-11-24T06:57:01.281Z,100219.19
2022-11-24T06:59:29.169Z,100220.13
2022-11-24T07:01:57.006Z,100224.38
2022-11-24T07:04:24.782Z,100226.22
2022-11-24T07:06:52.688Z,100223.47
2022-11-24T07:09:20.490Z,100232.81
2022-11-24T07:11:49.658Z,100238.19
2022-11-24T07:14:17.654Z,100247.50
2022-11-24T07:16:45.578Z,100244.81
2022-11-24T07:19:13.477Z,100244.88
2022-11-24T07:21:41.361Z,100243.94
2022-11-24T07:24:09.468Z,100256.81
2022-11-24T07:26:37.708Z,100254.41
2022-11-24T07:29:07.116Z,100225.34
2022-11-24T07:31:35.098Z,100272.34
2022-11-24T07:34:02.976Z,100283.50
2022-11-24T07:36:30.897Z,100283.47
2022-11-24T07:38:58.824Z,100280.88
2022-11-24T07:41:26.821Z,100283.72
2022-11-24T07:43:54.628Z,100279.31
2022-11-24T07:46:23.841Z,100290.34
2022-11-24T07:48:51.796Z,100266.72
2022-11-24T07:51:19.621Z,100298.31
2022-11-24T07:53:47.576Z,100311.19
2022-11-24T07:56:15.404Z,100305.09
2022-11-24T07:58:45.971Z,100317.94
2022-11-24T08:01:18.220Z,100326.75
2022-11-24T08:03:48.245Z,100331.72
2022-11-24T08:06:24.462Z,100337.97
2022-11-24T08:08:54.468Z,100341.22
2022-11-24T08:11:22.673Z,100348.91
2022-11-24T08:13:50.685Z,100350.69
2022-11-24T08:16:20.023Z,100302.88
2022-11-24T08:18:53.091Z,100355.06
2022-11-24T08:21:23.258Z,100348.00
2022-11-24T08:23:54.652Z,100337.72
2022-11-24T08:26:23.029Z,100342.03
2022-11-24T08:28:55.536Z,100338.50
2022-11-24T08:31:24.902Z,100345.31
2022-11-24T08:33:56.680Z,100351.22
2022-11-24T08:36:24.506Z,100352.94
2022-11-24T08:38:55.968Z,100327.28
2022-11-24T08:41:23.866Z,100355.53
2022-11-24T08:43:51.683Z,100352.00
2022-11-24T08:46:20.340Z,100359.09
2022-11-24T08:48:50.047Z,100359.00
2022-11-24T08:51:21.353Z,100372.59
2022-11-24T08:53:49.194Z,100382.13
2022-11-24T08:56:17.019Z,100381.09
2022-11-24T08:58:44.883Z,100381.19
2022-11-24T09:01:14.629Z,100391.47
2022-11-24T09:03:48.526Z,100377.56
2022-11-24T09:06:22.864Z,100382.59
2022-11-24T09:08:51.276Z,100389.34
2022-11-24T09:11:19.357Z,100372.28
2022-11-24T09:13:47.513Z,100391.09
2022-11-24T09:16:17.311Z,100394.56
2022-11-24T09:18:45.321Z,100389.28
2022-11-24T09:21:15.287Z,100390.28
2022-11-24T09:23:46.072Z,100354.50
2022-11-24T09:26:15.510Z,100395.66
2022-11-24T09:28:43.883Z,100389.03
2022-11-24T09:31:14.117Z,100391.28
2022-11-24T09:33:42.315Z,100391.97
2022-11-24T09:36:11.051Z,100391.03
2022-11-24T09:38:38.856Z,100396.75
2022-11-24T09:41:28.038Z,100394.00
2022-11-24T09:44:03.270Z,100380.13
2022-11-24T09:46:37.273Z,100409.31
2022-11-24T09:49:07.558Z,100404.56
2022-11-24T09:51:35.782Z,100414.41
2022-11-24T09:54:10.509Z,100413.53
2022-11-24T09:56:42.660Z,100411.59
2022-11-24T09:59:16.712Z,100426.97
2022-11-24T10:01:46.237Z,100416.50
2022-11-24T10:04:17.633Z,100419.94
2022-11-24T10:06:52.882Z,100397.56
2022-11-24T10:09:42.948Z,100431.19
2022-11-24T10:12:23.815Z,100432.72
2022-11-24T10:15:27.468Z,100437.41
2022-11-24T10:18:33.862Z,100425.53
2022-11-24T10:21:12.880Z,100437.41
2022-11-24T10:23:53.002Z,100434.56
2022-11-24T10:26:27.667Z,100381.09
2022-11-24T10:28:57.925Z,100442.38
2022-11-24T10:31:33.674Z,100450.22
2022-11-24T10:34:06.916Z,100446.50
2022-11-24T10:36:44.817Z,100445.63
2022-11-24T10:39:21.037Z,100447.81
2022-11-24T10:41:53.750Z,100410.28
2022-11-24T10:44:22.969Z,100461.63
2022-11-24T10:46:51.975Z,100447.84
2022-11-24T10:49:25.097Z,100453.03
2022-11-24T10:52:05.719Z,100466.03
2022-11-24T10:54:35.882Z,100466.91
2022-11-24T10:57:04.033Z,100468.25
2022-11-24T10:59:39.496Z,100444.38
2022-11-24T11:02:40.278Z,100475.28
2022-11-24T11:05:42.332Z,100454.66
2022-11-24T11:08:20.317Z,100461.44
2022-11-24T11:10:50.016Z,100465.53
2022-11-24T11:13:30.117Z,100438.88
2022-11-24T11:16:00.598Z,100466.19
2022-11-24T11:18:34.827Z,100459.38
2022-11-24T11:21:04.537Z,100443.97
2022-11-24T11:23:34.896Z,100488.75
2022-11-24T11:26:19.969Z,100483.56
2022-11-24T11:34:52.395Z,100460.25
2022-11-24T11:37:21.344Z,100479.56
2022-11-24T11:39:50.796Z,100481.41
2022-11-24T11:43:00.214Z,100495.81
2022-11-24T11:45:17.471Z,100495.47
2022-11-24T11:47:52.835Z,100456.16
2022-11-24T11:50:26.850Z,100504.06
2022-11-24T11:53:15.926Z,100452.59
2022-11-24T11:55:54.848Z,100500.38
2022-11-24T11:58:44.139Z,100502.94
2022-11-24T12:01:26.186Z,100505.63
2022-11-24T12:04:10.719Z,100501.81
2022-11-24T12:06:59.897Z,100507.78
2022-11-24T12:09:41.515Z,100514.81
2022-11-24T12:12:32.465Z,100476.22
2022-11-24T12:15:11.134Z,100532.06
2022-11-24T12:17:43.319Z,100532.81
2022-11-24T12:20:41.720Z,100530.41
2022-11-24T12:23:21.213Z,100531.03
2022-11-24T12:25:56.887Z,100525.16
2022-11-24T12:28:38.554Z,100500.28
2022-11-24T12:31:08.357Z,100531.94
2022-11-24T12:34:00.970Z,100527.31
2022-11-24T12:36:47.811Z,100531.94
2022-11-24T12:39:26.352Z,100531.56
2022-11-24T12:42:06.527Z,100538.63
2022-11-24T12:44:57.427Z,100549.03
2022-11-24T12:47:35.480Z,100541.06
2022-11-24T12:50:10.838Z,100550.66
2022-11-24T12:52:47.661Z,100549.59
2022-11-24T12:55:19.605Z,100545.38
2022-11-24T12:57:55.699Z,100555.56
2022-11-24T13:00:30.784Z,100568.59
2022-11-24T13:03:18.172Z,100569.44
2022-11-24T13:05:53.983Z,100562.44
2022-11-24T13:08:24.565Z,100568.56
2022-11-24T13:10:57.500Z,100571.38
2022-11-24T13:13:29.227Z,100567.88
2022-11-24T13:19:15.162Z,100546.44
2022-11-24T13:22:05.065Z,100579.00
2022-11-24T13:24:36.825Z,100568.03
2022-11-24T13:27:40.850Z,100580.00
2022-11-24T13:30:52.005Z,100588.69
2022-11-24T13:33:34.772Z,100590.47
2022-11-24T13:36:30.778Z,100594.22
2022-11-24T13:38:59.337Z,100591.59
2022-11-24T13:42:00.593Z,100597.44
2022-11-24T13:44:29.876Z,100600.22
2022-11-24T13:47:05.345Z,100609.72
2022-11-24T13:49:41.070Z,100611.50
2022-11-24T13:52:38.739Z,100622.22
2022-11-24T13:55:31.401Z,100613.53
2022-11-24T13:58:03.692Z,100618.53
2022-11-24T14:00:35.074Z,100629.88
2022-11-24T14:03:07.696Z,100623.78
2022-11-24T14:05:40.216Z,100634.16
2022-11-24T14:08:17.646Z,100626.28
2022-11-24T14:10:45.768Z,100633.25
2022-11-24T14:13:27.240Z,100631.63
2022-11-24T14:16:05.135Z,100641.13
2022-11-24T14:18:34.224Z,100647.28
2022-11-24T14:21:16.853Z,100625.72
2022-11-24T14:23:46.830Z,100651.41
2022-11-24T14:26:21.349Z,100651.47
2022-11-24T14:28:49.321Z,100649.78
2022-11-24T14:31:24.625Z,100667.09
2022-11-24T14:34:13.491Z,100656.84
2022-11-24T14:36:42.132Z,100662.09
2022-11-24T14:39:13.990Z,100659.69
2022-11-24T14:41:43.884Z,100664.06
2022-11-24T14:44:20.345Z,100667.31
2022-11-24T14:46:49.820Z,100671.19
2022-11-24T14:49:20.797Z,100671.09
2022-11-24T14:51:56.205Z,100676.31
2022-11-24T14:54:25.651Z,100666.94
2022-11-24T14:57:04.187Z,100657.69
2022-11-24T14:59:36.035Z,100679.78
2022-11-24T15:02:25.338Z,100675.59
2022-11-24T15:05:03.944Z,100676.53
2022-11-24T15:07:32.260Z,100668.03
2022-11-24T15:10:02.224Z,100640.53
2022-11-24T15:12:34.805Z,100673.09
2022-11-24T15:15:05.969Z,100685.16
2022-11-24T15:17:35.548Z,100692.16
2022-11-24T15:20:10.558Z,100701.00
2022-11-24T15:22:41.328Z,100707.69
2022-11-24T15:25:31.568Z,100700.97
2022-11-24T15:27:59.663Z,100675.22
2022-11-24T15:30:28.292Z,100704.44
2022-11-24T15:32:59.097Z,100656.34
2022-11-24T15:35:30.102Z,100703.59
2022-11-24T15:37:57.900Z,100724.81
2022-11-24T15:40:25.923Z,100725.81
2022-11-24T15:42:55.427Z,100726.88
2022-11-24T15:45:26.263Z,100718.06
2022-11-24T15:47:54.442Z,100667.34
2022-11-24T15:50:24.681Z,100716.16
2022-11-24T15:52:52.813Z,100718.03
2022-11-24T15:55:22.917Z,100707.69
2022-11-24T15:57:50.976Z,100703.34
2022-11-24T16:00:20.952Z,100715.50
2022-11-24T16:02:49.261Z,100686.19
2022-11-24T16:05:18.071Z,100721.50
2022-11-24T16:07:47.369Z,100718.88
2022-11-24T16:10:24.807Z,100730.19
2022-11-24T16:12:52.815Z,100723.38
2022-11-24T16:15:20.819Z,100721.50
2022-11-24T16:17:49.141Z,100601.44
2022-11-24T16:20:17.223Z,100728.53
2022-11-24T16:22:45.624Z,100722.41
2022-11-24T16:25:15.847Z,100729.22
2022-11-24T16:27:43.884Z,100726.66
2022-11-24T16:30:15.975Z,100717.97
2022-11-24T16:32:43.758Z,100705.28
2022-11-24T16:35:11.663Z,100725.84
2022-11-24T16:37:39.495Z,100733.59
2022-11-24T16:40:08.472Z,100694.72
2022-11-24T16:42:38.053Z,100728.22
2022-11-24T16:45:06.311Z,100731.69
2022-11-24T16:47:39.450Z,100734.34
2022-11-24T16:50:08.686Z,100719.78
2022-11-24T16:52:36.528Z,100734.31
2022-11-24T16:55:04.717Z,100740.41
2022-11-24T16:57:32.573Z,100740.31
2022-11-24T17:00:01.834Z,100745.50
2022-11-24T17:02:29.802Z,100734.25
2022-11-24T17:04:57.668Z,100738.63
2022-11-24T17:07:25.667Z,100743.72
2022-11-24T17:09:53.497Z,100743.78
2022-11-24T17:12:21.323Z,100749.19
2022-11-24T17:15:16.321Z,100755.94
2022-11-24T17:17:55.148Z,100755.75
2022-11-24T17:20:27.374Z,100748.75
2022-11-24T17:22:55.651Z,100761.75
2022-11-24T17:25:23.454Z,100768.63
2022-11-24T17:27:51.699Z,100767.75
2022-11-24T17:30:19.757Z,100769.63
2022-11-24T17:32:52.431Z,100767.03
2022-11-24T17:35:24.354Z,100776.50
2022-11-24T17:37:52.175Z,100768.66
2022-11-24T17:40:28.394Z,100780.03
2022-11-24T17:42:59.185Z,100788.81
2022-11-24T17:45:27.732Z,100781.00
2022-11-24T17:47:57.228Z,100781.97
2022-11-24T17:50:26.306Z,100793.19
2022-11-24T17:52:54.901Z,100782.63
2022-11-24T17:55:22.881Z,100790.53
2022-11-24T17:57:51.587Z,100787.00
2022-11-24T18:00:20.125Z,100781.88
2022-11-24T18:02:47.969Z,100787.72
2022-11-24T18:05:17.464Z,100786.81
2022-11-24T18:07:45.324Z,100785.03
2022-11-24T18:10:13.228Z,100784.53
2022-11-24T18:12:40.982Z,100784.44
2022-11-24T18:15:09.849Z,100794.06
2022-11-24T18:17:39.664Z,100788.00
2022-11-24T18:20:09.069Z,100774.81
2022-11-24T18:23:05.169Z,100773.16
2022-11-24T18:25:26.612Z,100788.44
2022-11-24T18:27:54.571Z,100786.69
2022-11-24T18:30:22.579Z,100783.44
2022-11-24T18:32:50.452Z,100793.66
2022-11-24T18:35:18.533Z,100798.91
2022-11-24T18:37:47.723Z,100802.50
2022-11-24T18:40:15.849Z,100802.47
2022-11-24T18:42:43.657Z,100805.91
2022-11-24T18:45:12.324Z,100794.59
2022-11-24T18:47:40.117Z,100806.75
2022-11-24T18:50:09.599Z,100794.72
2022-11-24T18:52:37.491Z,100757.66
2022-11-24T18:55:07.512Z,100791.34
2022-11-24T18:57:35.304Z,100812.13
2022-11-24T19:00:03.515Z,100804.22
2022-11-24T19:02:31.433Z,100809.34
2022-11-24T19:04:59.326Z,100813.03
2022-11-24T19:07:27.179Z,100818.09
2022-11-24T19:09:55.123Z,100819.81
2022-11-24T19:12:24.353Z,100824.94
2022-11-24T19:14:52.237Z,100828.47
2022-11-24T19:17:19.998Z,100825.06
2022-11-24T19:19:48.445Z,100820.56
2022-11-24T19:22:16.560Z,100822.19
2022-11-24T19:24:45.336Z,100833.56
2022-11-24T19:27:13.241Z,100819.72
2022-11-24T19:29:43.299Z,100829.25
2022-11-24T19:32:11.480Z,100797.53
2022-11-24T19:34:39.633Z,100829.38
2022-11-24T19:37:07.453Z,100831.13
2022-11-24T19:39:35.272Z,100830.22
2022-11-24T19:42:04.679Z,100836.16
2022-11-24T19:44:32.760Z,100832.78
2022-11-24T19:47:02.297Z,100803.69
2022-11-24T19:49:30.124Z,100814.75
2022-11-24T19:51:57.989Z,100852.63
2022-11-24T19:54:25.792Z,100850.06
2022-11-24T19:56:55.425Z,100845.84
2022-11-24T19:59:26.304Z,100850.09
2022-11-24T20:01:55.049Z,100852.69
2022-11-24T20:04:24.613Z,100852.72
2022-11-24T20:06:52.525Z,100861.41
2022-11-24T20:09:20.499Z,100855.47
2022-11-24T20:11:49.092Z,100821.97
2022-11-24T20:14:18.995Z,100865.09
2022-11-24T20:16:47.838Z,100827.19
2022-11-24T20:19:17.674Z,100856.38
2022-11-24T20:21:49.274Z,100858.25
2022-11-24T20:24:20.361Z,100856.56
2022-11-24T20:26:50.297Z,100849.81
2022-11-24T20:29:18.333Z,100849.00
2022-11-24T20:31:48.001Z,100849.97
2022-11-24T20:34:17.041Z,100847.53
2022-11-24T20:36:47.362Z,100853.59
2022-11-24T20:39:17.941Z,100852.81
2022-11-24T20:41:45.860Z,100791.88
2022-11-24T20:44:16.195Z,100769.53
2022-11-24T20:46:45.706Z,100868.59
2022-11-24T20:49:15.917Z,100872.94
2022-11-24T20:51:46.997Z,100862.63
2022-11-24T20:54:17.879Z,100870.47
2022-11-24T20:56:47.424Z,100870.47
2022-11-24T20:59:17.479Z,100864.44
2022-11-24T21:01:46.993Z,100870.47
2022-11-24T21:04:17.211Z,100867.94
2022-11-24T21:06:45.124Z,100857.63
2022-11-24T21:09:13.401Z,100876.66
2022-11-24T21:11:42.924Z,100865.47
2022-11-24T21:14:11.311Z,100879.28
2022-11-24T21:16:41.351Z,100830.19
2022-11-24T21:19:12.443Z,100881.88
2022-11-24T21:21:42.557Z,100878.50
2022-11-24T21:24:12.955Z,100899.16
2022-11-24T21:26:43.761Z,100892.25
2022-11-24T21:29:13.965Z,100904.41
2022-11-24T21:31:42.565Z,100897.53
2022-11-24T21:34:11.121Z,100908.75
2022-11-24T21:36:41.702Z,100906.16
2022-11-24T21:39:12.120Z,100914.81
2022-11-24T21:41:40.207Z,100920.88
2022-11-24T21:44:09.958Z,100917.41
2022-11-24T21:46:42.463Z,100920.88
2022-11-24T21:49:14.252Z,100923.41
2022-11-24T21:51:42.061Z,100921.75
2022-11-24T21:54:10.325Z,100919.16
2022-11-24T21:56:39.641Z,100929.53
2022-11-24T21:59:08.834Z,100930.38
2022-11-24T22:01:36.692Z,100930.38
2022-11-24T22:04:04.599Z,100927.78
2022-11-24T22:06:33.321Z,100933.81
2022-11-24T22:09:01.249Z,100938.97
2022-11-24T22:11:29.053Z,100932.00
2022-11-24T22:13:56.939Z,100937.19
2022-11-24T22:16:26.724Z,100932.00
2022-11-24T22:18:55.280Z,100932.84
2022-11-24T22:21:29.909Z,100937.09
2022-11-24T22:23:57.798Z,100930.22
2022-11-24T22:26:26.148Z,100938.81
2022-11-24T22:28:55.492Z,100935.38
2022-11-24T22:31:24.961Z,100945.72
2022-11-24T22:33:55.924Z,100937.03
2022-11-24T22:36:26.155Z,100942.19
2022-11-24T22:38:54.912Z,100947.34
2022-11-24T22:41:22.729Z,100935.28
2022-11-24T22:43:51.249Z,100940.50
2022-11-24T22:46:22.494Z,100940.53
2022-11-24T22:48:52.861Z,100937.94
2022-11-24T22:51:23.433Z,100937.91
2022-11-24T22:53:53.415Z,100936.19
2022-11-24T22:56:21.974Z,100937.00
2022-11-24T22:58:50.300Z,100942.25
2022-11-24T23:01:20.708Z,100938.78
2022-11-24T23:03:48.943Z,100934.50
2022-11-24T23:06:20.229Z,100935.34
2022-11-24T23:08:49.630Z,100918.13
2022-11-24T23:11:19.261Z,100940.63
2022-11-24T23:13:47.183Z,100932.88
2022-11-24T23:16:17.493Z,100929.47
2022-11-24T23:18:51.044Z,100920.00
2022-11-24T23:21:23.576Z,100919.16
2022-11-24T23:23:53.348Z,100918.34
2022-11-24T23:26:23.513Z,100910.56
2022-11-24T23:28:51.960Z,100914.91
2022-11-24T23:31:22.206Z,100908.91
2022-11-24T23:33:50.095Z,100911.50
2022-11-24T23:36:22.037Z,100906.31
2022-11-24T23:38:50.162Z,100906.34
2022-11-24T23:41:21.358Z,100898.56
2022-11-24T23:43:49.223Z,100919.28
2022-11-24T23:46:20.388Z,100894.25
2022-11-24T23:48:49.457Z,100890.84
2022-11-24T23:51:19.158Z,100896.88
2022-11-24T23:53:47.684Z,100900.34
2022-11-24T23:56:17.113Z,100909.84
2022-11-24T23:58:46.528Z,100806.44
